Time;durP1;ratioP1;P1;durP2;ratioP2;P2;SDS_P1;SDS_P2;PMS_P1;PMS_P2;Temp;Humidity;BMP_temperature;BMP_pressure;BME280_temperature;BME280_humidity;BME280_pressure;Samples;Min_cycle;Max_cycle;Signal;HPM_P1;HPM_P2
2023/07/12 00:01:00;;;;;;;24.55;22.83;;;22.90;99.90;;;;;;5028645;28;20053;-75
2023/07/12 00:03:27;;;;;;;28.73;27.02;;;23.00;99.90;;;;;;5028907;28;20034;-75
2023/07/12 00:05:53;;;;;;;31.52;29.73;;;22.90;99.90;;;;;;5029112;28;20371;-75
2023/07/12 00:08:29;;;;;;;32.22;30.52;;;22.90;99.90;;;;;;5029212;28;20029;-75
2023/07/12 00:10:56;;;;;;;35.00;33.00;;;23.00;99.90;;;;;;5028989;28;20022;-75
2023/07/12 00:13:23;;;;;;;41.25;39.05;;;22.90;99.90;;;;;;5028925;28;20503;-75
2023/07/12 00:15:49;;;;;;;35.60;33.80;;;22.80;99.90;;;;;;5013338;28;20523;-75
2023/07/12 00:18:17;;;;;;;36.97;34.88;;;22.70;99.90;;;;;;5014033;28;20495;-74
2023/07/12 00:20:44;;;;;;;37.72;35.72;;;22.50;99.90;;;;;;5028952;28;20029;-75
2023/07/12 00:23:11;;;;;;;39.65;37.53;;;22.50;99.90;;;;;;5013392;28;20025;-75
2023/07/12 00:25:37;;;;;;;36.45;34.58;;;22.50;99.90;;;;;;5013629;28;20029;-75
2023/07/12 00:28:09;;;;;;;36.83;34.88;;;22.50;99.90;;;;;;5012479;28;20040;-75
2023/07/12 00:30:37;;;;;;;30.38;28.52;;;22.30;99.90;;;;;;5027589;28;20479;-75
2023/07/12 00:33:03;;;;;;;31.48;29.90;;;22.30;99.90;;;;;;5012326;28;20041;-75
2023/07/12 00:35:30;;;;;;;30.02;28.40;;;22.30;99.90;;;;;;5011721;28;20050;-75
2023/07/12 00:37:58;;;;;;;30.95;29.27;;;22.40;99.90;;;;;;5028485;28;20423;-75
2023/07/12 00:40:43;;;;;;;25.80;24.45;;;22.40;99.90;;;;;;5012254;28;20498;-75
2023/07/12 00:43:29;;;;;;;26.83;25.35;;;22.30;99.90;;;;;;5013525;28;20030;-74
2023/07/12 00:45:56;;;;;;;23.58;22.27;;;22.30;99.90;;;;;;5026444;28;20045;-75
2023/07/12 00:48:22;;;;;;;25.45;24.02;;;22.30;99.90;;;;;;5032196;28;20018;-75
2023/07/12 00:50:49;;;;;;;26.60;25.08;;;22.30;99.90;;;;;;5011645;28;20046;-75
2023/07/12 00:53:19;;;;;;;31.05;29.27;;;22.30;99.90;;;;;;5028190;28;20026;-75
2023/07/12 00:55:54;;;;;;;31.88;29.92;;;22.20;99.90;;;;;;5012381;28;20037;-75
2023/07/12 00:58:25;;;;;;;27.85;26.48;;;22.30;99.90;;;;;;5013375;28;20387;-75
2023/07/12 01:00:51;;;;;;;25.98;24.50;;;22.20;99.90;;;;;;5027548;28;20038;-75
2023/07/12 01:03:18;;;;;;;29.75;28.08;;;22.00;99.90;;;;;;5011970;28;20034;-75
2023/07/12 01:05:44;;;;;;;31.40;29.65;;;22.00;99.90;;;;;;5028080;28;20026;-75
2023/07/12 01:08:11;;;;;;;32.53;30.80;;;22.10;99.90;;;;;;5028144;28;20026;-75
2023/07/12 01:10:38;;;;;;;31.90;30.23;;;22.10;99.90;;;;;;5027886;28;20478;-75
2023/07/12 01:13:07;;;;;;;33.55;31.67;;;22.10;99.90;;;;;;5013059;28;20026;-75
2023/07/12 01:15:34;;;;;;;28.75;27.17;;;22.10;99.90;;;;;;5027565;28;20154;-75
2023/07/12 01:18:01;;;;;;;26.98;25.45;;;22.10;99.90;;;;;;5027918;28;20034;-75
2023/07/12 01:20:27;;;;;;;27.73;26.23;;;22.00;99.90;;;;;;5027754;28;20026;-75
2023/07/12 01:22:54;;;;;;;26.98;25.38;;;21.80;99.90;;;;;;5027606;28;20034;-75
2023/07/12 01:25:43;;;;;;;18.98;17.80;;;21.70;99.90;;;;;;5011374;28;20053;-75
2023/07/12 01:28:09;;;;;;;15.10;13.73;;;21.60;99.90;;;;;;5027537;28;20360;-75
2023/07/12 01:30:36;;;;;;;13.55;12.70;;;21.60;99.90;;;;;;5011880;28;20042;-75
2023/07/12 01:33:03;;;;;;;13.43;12.57;;;21.60;99.90;;;;;;5012845;28;20037;-75
2023/07/12 01:35:30;;;;;;;14.18;13.27;;;21.60;99.90;;;;;;5010534;28;20049;-75
2023/07/12 01:37:56;;;;;;;15.07;14.05;;;21.60;99.90;;;;;;5027587;28;20065;-74
2023/07/12 01:40:22;;;;;;;13.68;12.80;;;21.60;99.90;;;;;;5011129;28;20018;-75
2023/07/12 01:42:48;;;;;;;12.90;11.82;;;21.40;99.90;;;;;;5027809;28;20037;-75
2023/07/12 01:45:14;;;;;;;13.00;12.23;;;21.20;99.90;;;;;;5011906;28;20030;-75
2023/07/12 01:47:40;;;;;;;12.02;11.23;;;21.20;99.90;;;;;;5027914;28;20117;-75
2023/07/12 01:50:07;;;;;;;12.75;11.88;;;21.30;99.90;;;;;;5010884;28;20037;-75
2023/07/12 01:52:33;;;;;;;13.13;12.23;;;21.20;99.90;;;;;;5007878;28;20395;-74
2023/07/12 01:54:59;;;;;;;14.00;13.05;;;21.30;99.90;;;;;;4991714;28;20030;-75
2023/07/12 01:57:25;;;;;;;13.88;12.82;;;21.30;99.90;;;;;;5011044;28;20046;-74
2023/07/12 01:59:51;;;;;;;12.38;11.23;;;21.20;99.90;;;;;;5011692;28;20029;-75
2023/07/12 02:02:17;;;;;;;14.48;13.38;;;21.20;99.90;;;;;;5004684;28;20050;-75
2023/07/12 02:04:43;;;;;;;15.35;14.15;;;21.20;99.90;;;;;;5005037;28;20029;-75
2023/07/12 02:07:09;;;;;;;15.98;14.88;;;21.20;99.90;;;;;;5014105;28;20475;-75
2023/07/12 02:09:39;;;;;;;16.30;15.10;;;21.30;99.90;;;;;;5014997;28;20026;-75
2023/07/12 02:12:06;;;;;;;15.13;14.10;;;21.30;99.90;;;;;;5029879;28;20045;-75
2023/07/12 02:14:32;;;;;;;14.45;13.45;;;21.20;99.90;;;;;;5030068;28;20049;-75
2023/07/12 02:16:58;;;;;;;15.25;13.88;;;21.20;99.90;;;;;;5046067;28;20053;-75
2023/07/12 02:19:24;;;;;;;15.23;14.27;;;21.10;99.90;;;;;;5046288;28;20026;-75
2023/07/12 02:21:50;;;;;;;15.40;14.40;;;21.10;99.90;;;;;;5014435;28;20040;-75
2023/07/12 02:24:16;;;;;;;16.27;15.18;;;21.00;99.90;;;;;;5014877;28;20440;-75
2023/07/12 02:26:42;;;;;;;15.20;14.10;;;21.00;99.90;;;;;;5046303;28;20042;-75
2023/07/12 02:29:09;;;;;;;14.98;13.85;;;20.90;99.90;;;;;;5046486;28;20455;-74
2023/07/12 02:31:35;;;;;;;13.60;12.65;;;21.00;99.90;;;;;;5045561;28;20042;-75
2023/07/12 02:34:01;;;;;;;12.57;11.68;;;20.80;99.90;;;;;;5014314;28;20030;-75
2023/07/12 02:36:27;;;;;;;14.52;13.20;;;20.90;99.90;;;;;;5014555;28;20041;-74
2023/07/12 02:38:54;;;;;;;14.63;13.25;;;20.80;99.90;;;;;;5015869;28;20036;-74
2023/07/12 02:41:20;;;;;;;15.05;13.73;;;20.90;99.90;;;;;;5014406;28;20045;-75
2023/07/12 02:43:46;;;;;;;13.52;12.60;;;20.90;99.90;;;;;;5030535;28;20041;-75
2023/07/12 02:46:12;;;;;;;12.60;11.60;;;20.90;99.90;;;;;;5030255;28;20041;-75
2023/07/12 02:48:38;;;;;;;12.70;11.80;;;20.90;99.90;;;;;;5047224;28;20494;-75
2023/07/12 02:51:04;;;;;;;13.13;12.13;;;20.90;99.90;;;;;;5013969;28;20483;-75
2023/07/12 02:53:33;;;;;;;12.98;12.18;;;20.90;99.90;;;;;;5015389;28;20022;-75
2023/07/12 02:55:59;;;;;;;14.93;13.82;;;20.80;99.90;;;;;;5015107;28;20045;-75
2023/07/12 02:58:25;;;;;;;16.67;15.15;;;20.80;99.90;;;;;;5015610;28;20025;-75
2023/07/12 03:00:57;;;;;;;20.38;18.77;;;20.80;99.90;;;;;;5014560;28;20030;-74
2023/07/12 03:03:23;;;;;;;20.95;19.35;;;20.70;99.90;;;;;;5015057;28;20383;-75
2023/07/12 03:05:49;;;;;;;15.30;14.13;;;20.80;99.90;;;;;;5030463;28;20033;-74
2023/07/12 03:08:16;;;;;;;15.90;14.43;;;20.80;99.90;;;;;;5015172;28;20030;-75
2023/07/12 03:10:42;;;;;;;17.27;15.95;;;20.70;99.90;;;;;;5013590;28;20056;-75
2023/07/12 03:13:09;;;;;;;15.15;14.10;;;20.70;99.90;;;;;;5015208;28;20026;-75
2023/07/12 03:15:38;;;;;;;13.88;12.77;;;20.60;99.90;;;;;;5014427;28;20042;-74
2023/07/12 03:18:04;;;;;;;15.48;14.07;;;20.60;99.90;;;;;;5014053;28;20387;-75
2023/07/12 03:20:33;;;;;;;18.77;17.42;;;20.50;99.90;;;;;;5029848;28;20390;-74
2023/07/12 03:22:59;;;;;;;17.10;15.68;;;20.50;99.90;;;;;;5030088;28;20068;-75
2023/07/12 03:25:25;;;;;;;15.35;14.10;;;20.40;99.90;;;;;;5013446;28;20038;-75
2023/07/12 03:27:51;;;;;;;15.10;13.70;;;20.40;99.90;;;;;;5014869;28;20044;-75
2023/07/12 03:30:17;;;;;;;13.30;12.10;;;20.40;99.90;;;;;;5014160;28;20479;-75
2023/07/12 03:32:43;;;;;;;12.80;11.27;;;20.40;99.90;;;;;;5014462;28;20025;-75
2023/07/12 03:35:09;;;;;;;11.93;10.90;;;20.40;99.90;;;;;;5014446;28;20033;-75
2023/07/12 03:37:35;;;;;;;13.13;9.73;;;20.40;99.90;;;;;;5029731;28;20521;-75
2023/07/12 03:40:03;;;;;;;11.27;10.18;;;20.40;99.90;;;;;;5029944;28;20026;-75
2023/07/12 03:42:29;;;;;;;12.30;11.10;;;20.40;99.90;;;;;;5013122;28;20053;-74
2023/07/12 03:44:55;;;;;;;13.55;12.30;;;20.40;99.90;;;;;;5014663;28;20037;-75
2023/07/12 03:47:21;;;;;;;16.08;14.48;;;20.40;99.90;;;;;;5028650;28;20499;-75
2023/07/12 03:49:47;;;;;;;14.15;12.77;;;20.40;99.90;;;;;;5029588;28;20026;-74
2023/07/12 03:52:13;;;;;;;13.32;12.05;;;20.40;99.90;;;;;;5013102;28;20034;-75
2023/07/12 03:54:41;;;;;;;12.95;11.75;;;20.40;99.90;;;;;;5029784;28;20357;-75
2023/07/12 03:57:07;;;;;;;10.57;8.45;;;20.40;99.90;;;;;;5014129;28;20065;-75
2023/07/12 03:59:33;;;;;;;10.52;7.80;;;20.30;99.90;;;;;;5014316;28;20021;-75
2023/07/12 04:01:59;;;;;;;8.85;8.00;;;20.30;99.90;;;;;;5012324;28;20057;-75
2023/07/12 04:04:25;;;;;;;10.23;7.72;;;20.30;99.90;;;;;;5014273;28;20391;-75
2023/07/12 04:06:51;;;;;;;13.23;7.60;;;20.20;99.90;;;;;;5013754;28;20040;-75
2023/07/12 04:09:17;;;;;;;9.52;8.20;;;20.20;99.90;;;;;;5014109;28;20382;-75
2023/07/12 04:11:43;;;;;;;13.27;8.00;;;20.10;99.90;;;;;;5014024;28;20030;-74
2023/07/12 04:14:09;;;;;;;12.70;8.15;;;20.00;99.90;;;;;;5013981;28;20030;-74
2023/07/12 04:16:36;;;;;;;12.00;8.57;;;20.00;99.90;;;;;;5012890;28;20046;-75
2023/07/12 04:19:02;;;;;;;12.75;8.63;;;19.90;99.90;;;;;;5013783;28;20034;-75
2023/07/12 04:21:28;;;;;;;12.32;8.75;;;19.90;99.90;;;;;;5013543;28;20037;-75
2023/07/12 04:23:54;;;;;;;12.90;9.02;;;20.00;99.90;;;;;;5013851;28;20044;-75
2023/07/12 04:26:21;;;;;;;15.02;11.48;;;20.00;99.90;;;;;;5012523;28;20034;-75
2023/07/12 04:28:49;;;;;;;12.13;10.25;;;20.00;99.90;;;;;;5013240;28;20548;-75
2023/07/12 04:31:16;;;;;;;14.05;11.07;;;20.00;99.90;;;;;;5027301;28;20045;-75
2023/07/12 04:33:43;;;;;;;11.57;7.78;;;20.00;99.90;;;;;;5013898;28;20053;-75
2023/07/12 04:36:11;;;;;;;13.40;9.18;;;20.00;99.90;;;;;;5013350;28;20037;-75
2023/07/12 04:38:37;;;;;;;12.05;10.23;;;20.00;99.90;;;;;;5013499;28;20042;-74
2023/07/12 04:41:03;;;;;;;14.05;10.85;;;19.90;99.90;;;;;;5012406;28;20036;-75
2023/07/12 04:43:29;;;;;;;11.40;9.57;;;19.90;99.90;;;;;;5013654;28;20034;-75
2023/07/12 04:45:56;;;;;;;12.65;10.55;;;20.00;99.90;;;;;;5012405;28;20037;-75
2023/07/12 04:48:22;;;;;;;17.25;11.18;;;19.90;99.90;;;;;;5009113;28;20035;-75
2023/07/12 04:50:57;;;;;;;16.33;9.00;;;19.80;99.90;;;;;;5069836;27;20437;-74
2023/07/12 04:53:23;;;;;;;13.73;9.70;;;19.80;99.90;;;;;;5068385;28;20377;-75
2023/07/12 04:55:52;;;;;;;12.90;9.82;;;19.80;99.90;;;;;;5069349;28;20035;-74
2023/07/12 04:58:19;;;;;;;12.35;9.25;;;19.80;99.90;;;;;;5068209;28;20054;-74
2023/07/12 05:00:45;;;;;;;14.68;8.60;;;19.80;99.90;;;;;;5061598;28;20041;-74
2023/07/12 05:03:12;;;;;;;13.80;8.45;;;19.80;99.90;;;;;;5049488;28;20028;-74
2023/07/12 05:05:38;;;;;;;13.38;7.63;;;19.80;99.90;;;;;;5049071;28;20036;-74
2023/07/12 05:08:05;;;;;;;17.55;7.70;;;19.70;99.90;;;;;;5048163;28;20096;-74
2023/07/12 05:10:31;;;;;;;13.85;8.40;;;19.70;99.90;;;;;;5047538;28;20045;-74
2023/07/12 05:12:57;;;;;;;14.63;7.47;;;19.80;99.90;;;;;;5048995;28;20036;-74
2023/07/12 05:15:24;;;;;;;12.70;7.68;;;19.60;99.90;;;;;;5047362;28;20028;-74
2023/07/12 05:17:50;;;;;;;15.18;7.97;;;19.70;99.90;;;;;;5047819;28;20026;-74
2023/07/12 05:20:16;;;;;;;13.07;8.50;;;19.70;99.90;;;;;;5049010;28;20044;-75
2023/07/12 05:22:43;;;;;;;13.40;12.00;;;19.80;99.90;;;;;;5047779;28;20394;-74
2023/07/12 05:25:09;;;;;;;14.82;10.57;;;20.00;99.90;;;;;;5049034;28;20093;-74
2023/07/12 05:27:35;;;;;;;15.38;12.00;;;20.10;99.90;;;;;;5030859;28;20486;-74
2023/07/12 05:30:02;;;;;;;14.25;12.80;;;20.20;99.90;;;;;;5047682;28;20064;-74
2023/07/12 05:32:28;;;;;;;13.23;10.50;;;20.40;99.90;;;;;;5046509;28;20487;-73
2023/07/12 05:34:54;;;;;;;10.80;9.45;;;20.50;99.90;;;;;;5048825;28;20045;-74
2023/07/12 05:37:20;;;;;;;14.15;10.07;;;20.60;99.90;;;;;;5047170;28;20501;-75
2023/07/12 05:39:46;;;;;;;14.00;9.90;;;20.80;99.90;;;;;;5043554;28;20033;-75
2023/07/12 05:42:13;;;;;;;12.45;11.20;;;20.80;99.90;;;;;;5042106;28;20029;-74
2023/07/12 05:44:39;;;;;;;12.98;11.68;;;20.80;99.90;;;;;;5048602;28;20497;-74
2023/07/12 05:47:05;;;;;;;13.27;10.23;;;20.70;99.90;;;;;;5046695;28;20437;-74
2023/07/12 05:49:31;;;;;;;14.25;12.18;;;20.70;99.90;;;;;;5046895;28;20502;-74
2023/07/12 05:51:59;;;;;;;11.90;10.57;;;20.70;99.90;;;;;;5048533;28;20379;-74
2023/07/12 05:54:25;;;;;;;11.07;9.98;;;20.80;99.90;;;;;;5047398;28;20029;-74
2023/07/12 05:56:51;;;;;;;16.55;14.18;;;21.00;99.90;;;;;;5046415;28;20029;-74
2023/07/12 05:59:18;;;;;;;16.85;15.02;;;21.10;99.90;;;;;;5047143;28;20029;-74
2023/07/12 06:01:44;;;;;;;17.90;16.52;;;21.30;99.90;;;;;;5036113;28;20041;-74
2023/07/12 06:04:11;;;;;;;22.63;20.92;;;21.50;99.90;;;;;;5035067;28;20037;-74
2023/07/12 06:06:38;;;;;;;25.02;23.13;;;21.60;99.90;;;;;;5033506;28;20030;-74
2023/07/12 06:09:04;;;;;;;29.33;27.15;;;21.70;99.90;;;;;;5034884;28;20378;-74
2023/07/12 06:11:30;;;;;;;28.88;26.85;;;21.90;99.90;;;;;;5033017;28;20044;-74
2023/07/12 06:13:56;;;;;;;32.08;29.67;;;21.90;99.90;;;;;;5034824;28;20032;-74
2023/07/12 06:16:23;;;;;;;31.85;29.73;;;22.10;99.90;;;;;;5034224;28;20040;-74
2023/07/12 06:18:49;;;;;;;30.83;28.70;;;22.30;99.90;;;;;;5034813;28;20032;-74
2023/07/12 06:21:15;;;;;;;29.40;27.10;;;22.30;99.90;;;;;;5034320;28;20383;-74
2023/07/12 06:23:42;;;;;;;31.42;29.42;;;22.20;99.90;;;;;;5034739;28;20028;-74
2023/07/12 06:26:08;;;;;;;34.58;32.17;;;22.30;99.90;;;;;;5034080;28;20030;-74
2023/07/12 06:28:34;;;;;;;31.52;29.38;;;22.40;99.90;;;;;;5033585;28;20033;-74
2023/07/12 06:31:05;;;;;;;29.48;27.67;;;22.50;99.90;;;;;;5032345;28;20056;-74
2023/07/12 06:33:31;;;;;;;32.40;30.08;;;22.60;99.90;;;;;;5034547;28;20025;-74
2023/07/12 06:35:57;;;;;;;32.33;29.65;;;22.70;99.90;;;;;;5032808;28;20021;-74
2023/07/12 06:38:23;;;;;;;31.35;29.08;;;22.80;99.90;;;;;;5034466;28;20034;-74
2023/07/12 06:40:50;;;;;;;30.83;28.92;;;22.90;99.90;;;;;;5033685;28;20390;-74
2023/07/12 06:43:16;;;;;;;34.17;31.67;;;23.00;99.90;;;;;;5034233;28;20032;-74
2023/07/12 06:45:45;;;;;;;35.17;32.17;;;23.00;99.90;;;;;;5032373;28;20498;-74
2023/07/12 06:48:11;;;;;;;33.42;31.40;;;23.20;99.90;;;;;;5034086;28;20489;-74
2023/07/12 06:50:38;;;;;;;37.75;35.22;;;23.20;99.90;;;;;;5032132;28;20045;-74
2023/07/12 06:53:04;;;;;;;35.85;33.53;;;23.20;99.90;;;;;;5032886;28;20036;-75
2023/07/12 06:55:30;;;;;;;35.78;33.55;;;23.30;99.90;;;;;;5032197;28;21042;-75
2023/07/12 06:57:56;;;;;;;35.85;33.60;;;23.30;99.90;;;;;;5032881;28;20022;-75
2023/07/12 07:00:22;;;;;;;34.95;32.65;;;23.20;99.90;;;;;;5032105;28;20519;-75
2023/07/12 07:02:49;;;;;;;35.05;32.92;;;23.20;99.90;;;;;;5033702;28;20033;-75
2023/07/12 07:05:15;;;;;;;37.13;34.80;;;23.20;99.90;;;;;;5032562;28;20024;-76
2023/07/12 07:07:41;;;;;;;37.42;35.03;;;23.30;99.90;;;;;;5033648;28;20040;-75
2023/07/12 07:10:08;;;;;;;40.15;37.75;;;23.40;99.90;;;;;;5032141;28;20445;-75
2023/07/12 07:12:34;;;;;;;31.67;29.52;;;23.40;99.90;;;;;;5032486;28;20387;-75
2023/07/12 07:15:00;;;;;;;33.97;31.80;;;23.40;99.90;;;;;;5033733;28;20054;-75
2023/07/12 07:17:26;;;;;;;36.83;34.45;;;23.20;99.90;;;;;;5032784;28;20040;-75
2023/07/12 07:19:52;;;;;;;37.15;34.78;;;23.30;99.90;;;;;;5033557;28;20025;-75
2023/07/12 07:22:18;;;;;;;35.35;33.22;;;23.30;99.90;;;;;;5033193;28;20029;-75
2023/07/12 07:24:44;;;;;;;41.60;39.05;;;23.20;99.90;;;;;;5033152;28;20033;-75
2023/07/12 07:27:12;;;;;;;41.05;38.13;;;23.00;99.90;;;;;;5033182;28;20036;-75
2023/07/12 07:29:38;;;;;;;40.80;38.40;;;23.00;99.90;;;;;;5033284;28;20025;-74
2023/07/12 07:32:05;;;;;;;41.47;38.70;;;23.10;99.90;;;;;;5032657;28;20038;-75
2023/07/12 07:34:31;;;;;;;41.13;38.83;;;23.30;99.90;;;;;;5032101;28;20026;-75
2023/07/12 07:36:57;;;;;;;40.85;38.13;;;23.50;99.90;;;;;;5032855;28;20029;-75
2023/07/12 07:39:23;;;;;;;40.58;38.13;;;23.30;99.90;;;;;;5031932;28;20060;-74
2023/07/12 07:41:49;;;;;;;40.25;38.03;;;23.20;99.90;;;;;;5032918;28;20033;-75
2023/07/12 07:44:15;;;;;;;44.13;41.63;;;22.90;99.90;;;;;;5033168;28;20040;-75
2023/07/12 07:46:41;;;;;;;44.67;42.03;;;22.80;99.90;;;;;;5031135;28;20034;-75
2023/07/12 07:49:07;;;;;;;43.70;41.10;;;22.80;99.90;;;;;;5032675;28;20052;-74
2023/07/12 07:51:35;;;;;;;41.92;39.53;;;22.80;99.90;;;;;;5031610;28;20037;-75
2023/07/12 07:54:01;;;;;;;44.45;41.88;;;22.90;99.90;;;;;;5031444;28;20041;-75
2023/07/12 07:56:27;;;;;;;47.60;44.70;;;22.90;99.90;;;;;;5031447;28;20034;-74
2023/07/12 07:58:53;;;;;;;46.65;43.97;;;22.90;99.90;;;;;;5033087;28;20052;-75
2023/07/12 08:01:19;;;;;;;47.58;44.83;;;23.00;99.90;;;;;;5030927;28;20037;-75
2023/07/12 08:03:45;;;;;;;53.53;50.13;;;23.00;99.90;;;;;;5031754;28;20485;-75
2023/07/12 08:06:12;;;;;;;47.22;44.33;;;23.20;99.90;;;;;;5032463;28;20037;-75
2023/07/12 08:08:38;;;;;;;44.47;41.83;;;23.40;99.90;;;;;;5032333;28;20030;-75
2023/07/12 08:11:06;;;;;;;47.60;44.90;;;23.30;99.90;;;;;;5032541;28;20399;-75
2023/07/12 08:13:32;;;;;;;46.47;43.88;;;23.10;99.90;;;;;;5015233;28;20033;-75
2023/07/12 08:15:58;;;;;;;48.65;46.08;;;22.90;99.90;;;;;;5031942;28;20041;-75
2023/07/12 08:18:24;;;;;;;42.90;40.42;;;22.90;99.90;;;;;;5032769;28;20029;-75
2023/07/12 08:20:56;;;;;;;44.72;42.22;;;22.80;99.90;;;;;;5032248;28;20101;-75
2023/07/12 08:23:22;;;;;;;47.50;45.00;;;22.80;99.90;;;;;;5030882;28;20466;-75
2023/07/12 08:25:49;;;;;;;48.90;46.40;;;23.00;99.90;;;;;;5030948;28;20037;-75
2023/07/12 08:28:16;;;;;;;54.53;51.72;;;23.00;99.90;;;;;;5031365;28;20032;-75
2023/07/12 08:30:42;;;;;;;53.22;50.38;;;23.00;99.90;;;;;;5030451;28;20494;-75
2023/07/12 08:33:08;;;;;;;54.33;51.45;;;23.00;99.90;;;;;;5032379;28;20041;-74
2023/07/12 08:35:34;;;;;;;54.65;51.70;;;23.10;99.90;;;;;;5030643;28;20025;-75
2023/07/12 08:38:00;;;;;;;56.13;53.05;;;23.30;99.90;;;;;;5030880;28;20036;-75
2023/07/12 08:40:26;;;;;;;57.85;54.47;;;23.50;99.90;;;;;;5032084;28;20032;-75
2023/07/12 08:42:52;;;;;;;54.40;51.45;;;23.70;99.90;;;;;;5031344;28;20041;-75
2023/07/12 08:45:35;;;;;;;48.50;45.85;;;23.90;99.90;;;;;;5031348;28;20030;-75
2023/07/12 08:48:02;;;;;;;39.33;37.13;;;24.00;99.90;;;;;;5031022;28;20030;-75
2023/07/12 08:50:39;;;;;;;46.03;43.65;;;24.20;99.90;;;;;;5029818;28;20053;-75
2023/07/12 08:53:09;;;;;;;46.22;43.42;;;24.20;99.90;;;;;;5030951;28;20387;-75
2023/07/12 08:55:35;;;;;;;40.42;38.05;;;24.40;99.90;;;;;;5030667;28;20018;-75
2023/07/12 08:58:22;;;;;;;45.38;42.88;;;24.30;99.90;;;;;;5030940;28;20032;-75
2023/07/12 09:00:54;;;;;;;50.17;47.53;;;24.20;99.90;;;;;;5030104;28;20064;-75
2023/07/12 09:03:20;;;;;;;42.58;40.33;;;24.20;99.90;;;;;;5030790;28;20097;-75
2023/07/12 09:05:46;;;;;;;36.47;34.38;;;24.20;99.90;;;;;;5031518;28;20406;-75
2023/07/12 09:08:20;;;;;;;34.13;32.33;;;24.20;99.90;;;;;;5030658;28;20041;-75
2023/07/12 09:10:54;;;;;;;39.38;37.00;;;24.10;99.90;;;;;;5030147;28;20037;-75
2023/07/12 09:13:21;;;;;;;37.35;35.33;;;23.90;99.90;;;;;;5031853;28;20032;-76
2023/07/12 09:15:51;;;;;;;45.05;42.75;;;23.90;99.90;;;;;;5031258;28;20045;-75
2023/07/12 09:18:43;;;;;;;37.67;35.40;;;24.00;99.90;;;;;;5030783;28;20052;-75
2023/07/12 09:21:14;;;;;;;48.05;45.35;;;24.00;99.90;;;;;;5030843;28;20052;-75
2023/07/12 09:23:41;;;;;;;39.80;37.50;;;23.90;99.90;;;;;;5030796;28;20021;-75
2023/07/12 09:26:27;;;;;;;44.42;42.08;;;23.90;99.90;;;;;;5030361;28;20026;-75
2023/07/12 09:28:57;;;;;;;34.80;32.80;;;23.80;99.90;;;;;;5030604;28;20030;-76
2023/07/12 09:31:28;;;;;;;29.23;27.70;;;23.90;99.90;;;;;;5013314;28;20037;-75
2023/07/12 09:33:59;;;;;;;47.15;44.65;;;24.00;99.90;;;;;;4997689;28;20041;-75
2023/07/12 09:36:25;;;;;;;;;;;23.70;99.90;;;;;;5033456;28;20026;-76
2023/07/12 09:38:51;;;;;;;24.85;23.45;;;23.80;99.90;;;;;;5035371;28;19905;-75
2023/07/12 09:41:19;;;;;;;24.08;22.50;;;24.00;99.90;;;;;;5034125;28;20497;-75
2023/07/12 09:43:56;;;;;;;34.55;32.70;;;24.20;99.40;;;;;;5018051;28;20029;-75
2023/07/12 09:46:53;;;;;;;24.95;23.45;;;24.10;99.90;;;;;;5033430;28;20033;-75
2023/07/12 09:49:24;;;;;;;30.75;28.98;;;23.80;99.30;;;;;;5018868;28;20046;-75
2023/07/12 09:51:56;;;;;;;31.25;29.33;;;23.60;99.90;;;;;;5033585;28;20038;-74
2023/07/12 09:54:53;;;;;;;30.90;29.05;;;23.30;99.90;;;;;;5034133;28;20029;-75
2023/07/12 09:57:41;;;;;;;23.90;22.50;;;23.20;99.90;;;;;;5029412;28;20041;-75
2023/07/12 10:00:16;;;;;;;39.33;37.05;;;23.40;99.20;;;;;;5034473;28;20029;-75
2023/07/12 10:03:00;;;;;;;28.10;26.05;;;23.50;99.90;;;;;;5014079;28;20494;-75
2023/07/12 10:05:26;;;;;;;23.58;22.27;;;23.80;99.90;;;;;;5017208;28;20037;-75
2023/07/12 10:07:55;;;;;;;24.27;22.70;;;24.10;99.30;;;;;;5017072;28;20034;-75
2023/07/12 10:10:38;;;;;;;21.40;20.10;;;24.40;97.60;;;;;;5034665;28;20532;-76
2023/07/12 10:13:22;;;;;;;23.00;21.70;;;24.50;97.10;;;;;;5035143;28;20029;-75
2023/07/12 10:15:48;;;;;;;22.25;20.95;;;24.60;97.10;;;;;;5034204;28;20029;-75
2023/07/12 10:18:25;;;;;;;23.73;22.33;;;24.90;97.10;;;;;;5017004;28;20033;-76
2023/07/12 10:20:51;;;;;;;22.95;21.75;;;24.90;96.90;;;;;;5016851;28;20037;-75
2023/07/12 10:23:20;;;;;;;21.13;19.83;;;25.00;94.80;;;;;;5017129;28;20041;-75
2023/07/12 10:25:48;;;;;;;19.90;18.63;;;24.90;94.70;;;;;;5034514;28;20033;-75
2023/07/12 10:28:21;;;;;;;19.38;18.38;;;24.80;95.40;;;;;;5033663;28;20033;-76
2023/07/12 10:30:48;;;;;;;20.48;19.27;;;24.80;95.80;;;;;;5032522;28;20045;-75
2023/07/12 10:33:35;;;;;;;21.80;20.60;;;24.90;95.60;;;;;;5016672;28;20026;-75
2023/07/12 10:36:30;;;;;;;21.45;20.15;;;25.10;94.30;;;;;;5000766;28;20482;-76
2023/07/12 10:38:56;;;;;;;21.88;20.48;;;25.10;94.70;;;;;;5025724;28;20037;-75
2023/07/12 10:41:44;;;;;;;23.10;21.75;;;24.90;93.90;;;;;;5016515;28;20394;-75
2023/07/12 10:44:34;;;;;;;20.90;19.55;;;24.80;94.40;;;;;;5032920;28;20033;-75
2023/07/12 10:47:02;;;;;;;21.45;20.23;;;24.90;95.40;;;;;;5024678;28;20036;-75
2023/07/12 10:49:44;;;;;;;22.80;21.55;;;25.10;95.50;;;;;;5014624;28;20056;-76
2023/07/12 10:52:10;;;;;;;22.70;21.48;;;25.20;94.00;;;;;;5029626;28;20402;-75
2023/07/12 10:54:36;;;;;;;23.52;22.13;;;25.00;93.70;;;;;;5033958;28;20427;-75
2023/07/12 10:57:21;;;;;;;22.90;21.52;;;24.80;94.30;;;;;;5033926;28;20493;-76
2023/07/12 10:59:47;;;;;;;22.83;21.52;;;24.80;95.00;;;;;;5016530;28;20030;-75
2023/07/12 11:02:44;;;;;;;23.60;22.27;;;24.90;93.40;;;;;;5031519;28;20045;-76
2023/07/12 11:05:35;;;;;;;20.45;19.25;;;24.60;93.50;;;;;;5032646;28;20056;-76
2023/07/12 11:08:03;;;;;;;21.65;20.45;;;24.70;94.70;;;;;;5014068;28;20025;-76
2023/07/12 11:10:29;;;;;;;25.10;23.67;;;25.00;94.60;;;;;;5048021;28;20060;-75
2023/07/12 11:12:57;;;;;;;23.17;21.77;;;25.20;92.90;;;;;;5016247;28;20026;-76
2023/07/12 11:15:24;;;;;;;35.47;33.67;;;25.30;94.00;;;;;;5015366;28;20026;-76
2023/07/12 11:18:21;;;;;;;27.60;26.10;;;25.50;91.70;;;;;;5033674;28;20029;-76
2023/07/12 11:21:03;;;;;;;26.95;25.35;;;25.70;92.90;;;;;;5032090;28;20029;-76
2023/07/12 11:23:38;;;;;;;26.45;24.85;;;26.00;92.90;;;;;;5032329;28;20025;-76
2023/07/12 11:26:20;;;;;;;35.92;33.92;;;26.10;92.60;;;;;;5033291;28;20471;-76
2023/07/12 11:28:46;;;;;;;29.58;28.02;;;26.20;91.80;;;;;;5032230;28;20033;-76
2023/07/12 11:31:14;;;;;;;29.05;27.25;;;26.10;92.20;;;;;;5031130;28;20514;-75
2023/07/12 11:33:42;;;;;;;46.72;44.40;;;26.10;92.10;;;;;;5032207;28;20080;-76
2023/07/12 11:36:09;;;;;;;40.10;38.00;;;25.80;90.50;;;;;;5015483;28;20044;-76
2023/07/12 11:38:36;;;;;;;26.98;25.48;;;25.80;91.00;;;;;;5032027;28;20025;-76
2023/07/12 11:41:07;;;;;;;27.10;25.70;;;25.90;92.00;;;;;;5031703;28;20025;-76
2023/07/12 11:43:37;;;;;;;27.38;25.52;;;26.10;92.50;;;;;;5031946;28;20030;-76
2023/07/12 11:46:13;;;;;;;25.00;23.47;;;26.30;92.20;;;;;;5030984;28;20033;-76
2023/07/12 11:48:42;;;;;;;31.55;29.88;;;26.20;91.90;;;;;;5031726;28;20029;-76
2023/07/12 11:51:15;;;;;;;27.73;26.02;;;26.20;91.70;;;;;;5031534;28;20060;-75
2023/07/12 11:53:56;;;;;;;31.08;29.48;;;26.40;92.40;;;;;;5016043;28;20053;-76
2023/07/12 11:56:22;;;;;;;38.22;35.95;;;26.60;91.60;;;;;;5016121;28;20029;-76
2023/07/12 11:58:48;;;;;;;37.65;35.75;;;26.80;91.50;;;;;;5032131;28;20394;-76
2023/07/12 12:01:15;;;;;;;32.03;30.40;;;26.90;91.20;;;;;;5022367;28;20026;-76
2023/07/12 12:03:42;;;;;;;46.40;44.00;;;26.90;91.30;;;;;;5012062;28;20026;-76
2023/07/12 12:06:12;;;;;;;40.00;37.78;;;26.90;90.70;;;;;;5012804;28;20034;-76
2023/07/12 12:08:38;;;;;;;41.00;38.90;;;26.90;90.50;;;;;;5011898;28;20045;-76
2023/07/12 12:11:04;;;;;;;32.70;31.05;;;26.90;90.70;;;;;;5011472;28;20053;-76
2023/07/12 12:13:31;;;;;;;56.78;53.88;;;27.10;91.40;;;;;;5010451;28;20473;-76
2023/07/12 12:16:01;;;;;;;29.35;27.70;;;27.10;88.70;;;;;;4994565;28;20038;-76
2023/07/12 12:18:27;;;;;;;49.83;47.35;;;26.90;90.90;;;;;;5011693;28;20030;-76
2023/07/12 12:21:05;;;;;;;42.80;40.58;;;26.90;89.90;;;;;;5011273;28;20044;-76
2023/07/12 12:23:37;;;;;;;52.65;50.03;;;27.00;90.40;;;;;;4975917;28;20035;-76
2023/07/12 12:26:13;;;;;;;35.78;33.97;;;27.20;88.90;;;;;;4998970;28;20037;-76
2023/07/12 12:28:39;;;;;;;32.42;30.65;;;27.30;90.50;;;;;;5010725;28;20038;-74
2023/07/12 12:31:11;;;;;;;40.97;38.63;;;27.40;90.90;;;;;;5010921;28;20046;-74
2023/07/12 12:33:43;;;;;;;40.40;38.17;;;27.50;90.60;;;;;;5011520;28;20471;-73
2023/07/12 12:36:20;;;;;;;45.03;42.53;;;27.60;90.50;;;;;;5011060;28;20033;-74